createdAt,value
2023-05-09T07:06:16.398Z,101544.59
2023-05-09T07:11:38.362Z,101532.94
2023-05-09T07:17:18.153Z,101526.28
2023-05-09T07:22:42.538Z,101531.50
2023-05-09T07:28:04.846Z,101524.00
2023-05-09T07:33:26.890Z,101519.75
2023-05-09T07:38:51.154Z,101510.34
2023-05-09T07:44:13.765Z,101496.72
2023-05-09T07:49:36.391Z,101507.09
2023-05-09T07:54:58.470Z,101505.84
2023-05-09T08:00:24.572Z,101501.59
2023-05-09T08:05:46.391Z,101486.72
2023-05-09T08:11:08.782Z,101482.66
2023-05-09T08:16:33.327Z,101483.66
2023-05-09T08:21:56.133Z,101473.50
2023-05-09T08:27:18.274Z,101476.31
2023-05-09T08:32:39.926Z,101469.81
2023-05-09T08:38:07.157Z,101449.34
2023-05-09T08:43:29.943Z,101457.97
2023-05-09T08:48:53.283Z,101453.00
2023-05-09T08:54:16.389Z,101441.69
2023-05-09T08:59:41.145Z,101447.22
2023-05-09T09:05:03.491Z,101434.41
2023-05-09T09:10:29.591Z,101436.59
2023-05-09T09:15:54.242Z,101430.16
2023-05-09T09:21:17.799Z,101429.44
2023-05-09T09:26:48.127Z,101425.91
2023-05-09T09:32:10.224Z,101417.47
2023-05-09T09:37:35.172Z,101412.47
2023-05-09T09:42:56.989Z,101409.31
2023-05-09T09:48:19.061Z,101413.53
2023-05-09T09:53:43.074Z,101410.47
2023-05-09T09:59:15.195Z,101397.47
2023-05-09T10:04:44.036Z,101397.22
2023-05-09T10:10:07.061Z,101397.28
2023-05-09T10:15:38.438Z,101391.91
2023-05-09T10:21:11.314Z,101389.59
2023-05-09T10:26:35.499Z,101388.84
2023-05-09T10:32:00.773Z,101377.44
2023-05-09T10:37:22.762Z,101372.28
2023-05-09T10:42:46.197Z,101366.94
2023-05-09T10:48:09.668Z,101366.16
2023-05-09T10:53:45.674Z,101344.56
2023-05-09T10:59:27.754Z,101343.84
2023-05-09T11:04:49.698Z,101346.28
2023-05-09T11:10:19.092Z,101326.28
2023-05-09T11:16:00.134Z,101307.91
2023-05-09T11:21:23.724Z,101307.31
2023-05-09T11:26:49.035Z,101304.78
2023-05-09T11:32:16.533Z,101294.53
2023-05-09T11:37:48.678Z,101301.13
2023-05-09T11:43:11.331Z,101300.88
2023-05-09T11:48:39.726Z,101284.94
2023-05-09T11:54:01.404Z,101272.16
2023-05-09T11:59:25.244Z,101275.66
2023-05-09T12:04:47.202Z,101268.38
2023-05-09T12:10:10.618Z,101265.50
2023-05-09T12:15:43.480Z,101255.75
2023-05-09T12:21:07.719Z,101259.13
2023-05-09T12:26:30.217Z,101252.84
2023-05-09T12:31:56.198Z,101242.81
2023-05-09T12:37:19.816Z,101235.59
2023-05-09T12:42:45.589Z,101232.75
2023-05-09T12:48:09.769Z,101228.88
2023-05-09T12:53:32.109Z,101220.03
2023-05-09T12:58:55.477Z,101216.63
2023-05-09T13:04:21.451Z,101200.19
2023-05-09T13:10:01.441Z,101196.44
2023-05-09T13:15:24.659Z,101192.25
2023-05-09T13:20:49.303Z,101184.72
2023-05-09T13:26:11.375Z,101179.22
2023-05-09T13:31:34.266Z,101171.75
2023-05-09T13:36:56.803Z,101175.97
2023-05-09T13:42:19.306Z,101166.91
2023-05-09T13:47:41.372Z,101173.97
2023-05-09T13:53:03.801Z,101168.78
2023-05-09T13:58:25.363Z,101171.25
2023-05-09T14:03:49.559Z,101166.16
2023-05-09T14:09:15.761Z,101163.38
2023-05-09T14:14:37.868Z,101163.59
2023-05-09T14:19:59.771Z,101151.69
2023-05-09T14:25:23.279Z,101155.69
2023-05-09T14:30:45.248Z,101152.63
2023-05-09T14:36:08.131Z,101144.41
2023-05-09T14:41:29.952Z,101135.28
2023-05-09T14:46:52.135Z,101137.09
2023-05-09T14:52:14.412Z,101133.47
2023-05-09T14:57:36.763Z,101127.19
2023-05-09T15:02:58.887Z,101130.06
2023-05-09T15:08:21.306Z,101118.41
2023-05-09T15:13:43.438Z,101123.56
2023-05-09T15:19:05.889Z,101117.66
2023-05-09T15:24:27.903Z,101099.06
2023-05-09T15:29:49.793Z,101107.84
2023-05-09T15:35:12.043Z,101109.91
2023-05-09T15:40:34.480Z,101100.56
2023-05-09T15:45:56.664Z,101098.50
2023-05-09T15:51:18.919Z,101090.88
2023-05-09T15:56:41.171Z,101093.41
2023-05-09T16:02:03.258Z,101086.84
2023-05-09T16:07:25.714Z,101089.53
2023-05-09T16:12:48.003Z,101088.19
2023-05-09T16:18:10.237Z,101088.59
2023-05-09T16:23:32.226Z,101084.03
2023-05-09T16:28:54.114Z,101093.06
2023-05-09T16:34:16.146Z,101088.56
2023-05-09T16:39:38.258Z,101088.66
2023-05-09T16:45:00.646Z,101083.53
2023-05-09T16:50:22.428Z,101075.75
2023-05-09T16:55:44.603Z,101084.44
2023-05-09T17:01:07.286Z,101069.88
2023-05-09T17:06:29.343Z,101088.22
2023-05-09T17:11:51.282Z,101094.69
2023-05-09T17:17:14.116Z,101093.03
2023-05-09T17:22:37.125Z,101097.25
2023-05-09T17:27:59.426Z,101104.22
2023-05-09T17:33:21.866Z,101091.19
2023-05-09T17:38:44.187Z,101099.97
2023-05-09T17:44:06.550Z,101089.13
2023-05-09T17:49:30.039Z,101086.06
2023-05-09T17:54:52.091Z,101088.34
2023-05-09T18:00:15.706Z,101087.97
2023-05-09T18:05:38.506Z,101086.81
2023-05-09T18:11:00.387Z,101082.41
2023-05-09T18:16:22.699Z,101077.94
2023-05-09T18:34:04.507Z,101078.22
2023-05-09T18:39:26.769Z,101088.69
2023-05-09T18:44:49.008Z,101085.91
2023-05-09T18:50:12.009Z,101087.63
2023-05-09T18:55:34.287Z,101083.50
2023-05-09T19:00:55.888Z,101089.34
2023-05-09T19:06:18.146Z,101084.78
2023-05-09T19:11:40.095Z,101086.41
2023-05-09T19:17:02.319Z,101085.03
2023-05-09T19:22:24.514Z,101084.88
2023-05-09T19:27:47.160Z,101086.97
2023-05-09T19:33:09.089Z,101091.94
2023-05-09T19:38:31.816Z,101097.78
2023-05-09T19:43:54.173Z,101091.28
2023-05-09T19:49:18.004Z,101091.06
2023-05-09T19:54:40.394Z,101082.53
2023-05-09T20:00:02.668Z,101091.28
2023-05-09T20:05:42.137Z,101094.56
2023-05-09T20:11:09.353Z,101094.78
2023-05-09T20:16:33.351Z,101088.41
2023-05-09T20:21:55.330Z,101090.38
2023-05-09T20:27:17.998Z,101089.56
2023-05-09T20:32:40.380Z,101087.25
2023-05-09T20:38:04.238Z,101088.41
2023-05-09T20:43:27.170Z,101085.47
2023-05-09T20:48:49.679Z,101090.69
2023-05-09T20:54:12.354Z,101087.72
2023-05-09T20:59:34.677Z,101091.06
2023-05-09T21:04:57.306Z,101085.25
2023-05-09T21:10:19.559Z,101084.09
2023-05-09T21:15:42.340Z,101075.59
2023-05-09T21:21:08.832Z,101077.91
2023-05-09T21:26:30.901Z,101077.56
2023-05-09T21:31:52.803Z,101063.25
2023-05-09T21:37:15.719Z,101068.72
2023-05-09T21:42:40.565Z,101064.38
2023-05-09T21:48:03.249Z,101059.69
2023-05-09T21:53:25.982Z,101059.28
2023-05-09T21:58:47.829Z,101051.91
2023-05-09T22:04:09.902Z,101047.38
2023-05-09T22:09:32.143Z,101039.41
2023-05-09T22:14:56.725Z,101036.34
2023-05-09T22:20:19.353Z,101038.88
2023-05-09T22:25:41.258Z,101042.31
2023-05-09T22:31:05.824Z,101044.47
2023-05-09T22:36:27.409Z,101043.03
2023-05-09T22:41:50.708Z,101040.47
2023-05-09T22:47:13.024Z,101039.19
2023-05-09T22:52:37.502Z,101038.91
2023-05-09T22:57:59.549Z,101045.81
2023-05-09T23:03:23.041Z,101038.38
2023-05-09T23:08:45.788Z,101033.72
2023-05-09T23:14:08.026Z,101036.78
2023-05-09T23:19:55.038Z,101026.75
2023-05-09T23:25:19.350Z,101027.00
2023-05-09T23:30:42.407Z,101014.28
2023-05-09T23:36:07.757Z,101019.28
2023-05-09T23:41:30.165Z,101012.88
2023-05-09T23:46:51.984Z,101019.31
2023-05-09T23:52:15.405Z,101017.69
2023-05-09T23:57:38.106Z,101021.13
